createdAt,value
2018-09-30T00:02:24.474Z,7.70
2018-09-30T00:05:28.227Z,7.88
2018-09-30T00:08:31.793Z,8.12
2018-09-30T00:11:35.421Z,8.00
2018-09-30T00:14:38.951Z,7.67
2018-09-30T00:17:42.514Z,7.93
2018-09-30T00:20:46.068Z,8.00
2018-09-30T00:24:58.349Z,7.97
2018-09-30T00:28:01.922Z,7.83
2018-09-30T00:31:05.599Z,7.98
2018-09-30T00:34:14.434Z,8.03
2018-09-30T00:37:17.936Z,7.96
2018-09-30T00:40:21.481Z,7.90
2018-09-30T00:43:25.057Z,7.90
2018-09-30T00:46:28.551Z,7.83
2018-09-30T00:49:32.101Z,7.57
2018-09-30T00:52:35.615Z,7.53
2018-09-30T00:55:39.173Z,7.59
2018-09-30T00:58:42.844Z,7.52
2018-09-30T01:01:46.363Z,7.55
2018-09-30T01:04:49.822Z,7.27
2018-09-30T01:07:53.407Z,7.25
2018-09-30T01:10:56.942Z,7.07
2018-09-30T01:14:00.487Z,6.99
2018-09-30T01:17:04.119Z,6.97
2018-09-30T01:20:07.902Z,6.86
2018-09-30T01:23:11.550Z,6.73
2018-09-30T01:26:15.117Z,6.61
2018-09-30T01:29:18.618Z,6.46
2018-09-30T01:32:22.266Z,6.35
2018-09-30T01:35:25.753Z,6.12
2018-09-30T01:38:29.419Z,5.95
2018-09-30T01:41:32.974Z,6.11
2018-09-30T01:44:36.553Z,6.41
2018-09-30T01:47:40.065Z,6.26
2018-09-30T01:50:43.574Z,6.15
2018-09-30T01:53:47.229Z,6.69
2018-09-30T01:56:50.794Z,6.88
2018-09-30T01:59:54.347Z,6.57
2018-09-30T02:02:57.894Z,6.41
2018-09-30T02:06:01.388Z,6.25
2018-09-30T02:09:05.425Z,6.30
2018-09-30T02:12:08.975Z,6.16
2018-09-30T02:15:12.673Z,6.41
2018-09-30T02:18:16.800Z,6.42
2018-09-30T02:21:20.365Z,6.46
2018-09-30T02:24:23.848Z,6.44
2018-09-30T02:27:27.699Z,6.76
2018-09-30T02:30:31.260Z,6.70
2018-09-30T02:33:34.820Z,6.87
2018-09-30T02:36:38.505Z,6.87
2018-09-30T02:39:41.969Z,7.09
2018-09-30T02:42:45.488Z,6.69
2018-09-30T02:45:49.110Z,6.40
2018-09-30T02:48:52.679Z,6.48
2018-09-30T02:51:56.278Z,6.38
2018-09-30T02:54:59.771Z,6.38
2018-09-30T02:58:03.403Z,6.28
2018-09-30T03:01:06.981Z,6.25
2018-09-30T03:04:10.913Z,6.37
2018-09-30T03:07:19.699Z,6.44
2018-09-30T03:10:23.298Z,6.31
2018-09-30T03:13:26.925Z,6.08
2018-09-30T03:16:30.582Z,5.94
2018-09-30T03:19:34.085Z,5.74
2018-09-30T03:22:37.599Z,5.80
2018-09-30T03:25:41.362Z,5.87
2018-09-30T03:28:44.880Z,5.79
2018-09-30T03:31:48.530Z,5.81
2018-09-30T03:34:52.020Z,5.72
2018-09-30T03:37:55.528Z,5.63
2018-09-30T03:40:59.241Z,5.48
2018-09-30T03:44:03.040Z,5.56
2018-09-30T03:47:06.845Z,5.50
2018-09-30T03:50:10.448Z,5.46
2018-09-30T03:53:14.019Z,5.65
2018-09-30T03:56:17.614Z,5.53
2018-09-30T03:59:21.113Z,5.65
2018-09-30T04:02:24.624Z,5.59
2018-09-30T04:05:28.203Z,5.64
2018-09-30T04:08:31.666Z,5.47
2018-09-30T04:11:35.195Z,5.42
2018-09-30T04:14:38.734Z,5.31
2018-09-30T04:17:42.275Z,5.27
2018-09-30T04:20:45.831Z,5.19
2018-09-30T04:23:53.064Z,5.12
2018-09-30T04:26:56.617Z,5.10
2018-09-30T04:30:00.666Z,5.13
2018-09-30T04:33:04.310Z,5.24
2018-09-30T04:36:07.820Z,5.27
2018-09-30T04:39:11.319Z,5.50
2018-09-30T04:42:14.844Z,5.47
2018-09-30T04:45:18.450Z,5.56
2018-09-30T04:48:22.219Z,5.53
2018-09-30T04:51:25.701Z,5.57
2018-09-30T04:54:29.205Z,5.71
2018-09-30T04:57:32.789Z,5.87
2018-09-30T05:00:36.464Z,5.64
2018-09-30T05:03:40.408Z,5.50
2018-09-30T05:06:43.918Z,5.32
2018-09-30T05:09:47.521Z,5.17
2018-09-30T05:12:51.078Z,5.04
2018-09-30T05:15:55.378Z,4.90
2018-09-30T05:18:58.838Z,4.95
2018-09-30T05:22:02.491Z,4.96
2018-09-30T05:25:06.061Z,5.02
2018-09-30T05:28:09.659Z,5.04
2018-09-30T05:31:13.188Z,5.17
2018-09-30T05:34:16.664Z,5.16
2018-09-30T05:37:20.241Z,5.24
2018-09-30T05:40:23.821Z,5.55
2018-09-30T05:43:27.399Z,5.76
2018-09-30T05:46:31.180Z,6.26
2018-09-30T05:49:34.676Z,7.10
2018-09-30T05:52:38.332Z,7.55
2018-09-30T05:55:42.021Z,7.96
2018-09-30T05:58:45.631Z,8.23
2018-09-30T06:01:49.208Z,8.39
2018-09-30T06:04:52.881Z,8.28
2018-09-30T06:07:56.541Z,8.49
2018-09-30T06:11:00.195Z,8.62
2018-09-30T06:14:03.855Z,8.63
2018-09-30T06:17:07.516Z,8.59
2018-09-30T06:20:11.213Z,8.82
2018-09-30T06:23:14.761Z,8.95
2018-09-30T06:26:18.320Z,8.82
2018-09-30T06:29:22.225Z,8.88
2018-09-30T06:32:26.587Z,8.86
2018-09-30T06:35:30.093Z,9.11
2018-09-30T06:38:33.655Z,9.08
2018-09-30T06:41:37.382Z,9.01
2018-09-30T06:44:40.910Z,9.07
2018-09-30T06:47:44.556Z,9.16
2018-09-30T06:50:48.126Z,9.17
2018-09-30T06:53:51.604Z,9.02
2018-09-30T06:56:55.207Z,9.19
2018-09-30T06:59:58.765Z,9.29
2018-09-30T07:03:02.415Z,9.30
2018-09-30T07:06:05.973Z,9.51
2018-09-30T07:09:09.764Z,9.35
2018-09-30T07:12:13.569Z,9.51
2018-09-30T07:15:17.192Z,9.55
2018-09-30T07:18:20.932Z,9.55
2018-09-30T07:21:24.532Z,9.60
2018-09-30T07:24:28.172Z,9.71
2018-09-30T07:27:32.476Z,9.82
2018-09-30T07:30:36.196Z,9.83
2018-09-30T07:33:40.504Z,9.81
2018-09-30T07:36:43.994Z,10.00
2018-09-30T07:39:47.618Z,9.96
2018-09-30T07:42:51.553Z,10.19
2018-09-30T07:45:55.146Z,10.06
2018-09-30T07:48:58.757Z,10.15
2018-09-30T07:52:02.356Z,10.21
2018-09-30T07:55:06.003Z,10.11
2018-09-30T07:58:09.544Z,10.08
2018-09-30T08:01:13.113Z,9.98
2018-09-30T08:04:16.781Z,10.15
2018-09-30T08:07:20.273Z,10.20
2018-09-30T08:10:23.885Z,10.33
2018-09-30T08:13:27.515Z,10.38
2018-09-30T08:16:31.337Z,10.95
2018-09-30T08:19:34.872Z,10.99
2018-09-30T08:22:38.520Z,10.74
2018-09-30T08:25:42.032Z,10.63
2018-09-30T08:28:45.671Z,10.64
2018-09-30T08:31:49.228Z,10.48
2018-09-30T08:34:53.006Z,10.46
2018-09-30T08:38:01.640Z,10.50
2018-09-30T08:41:08.213Z,10.44
2018-09-30T08:44:11.852Z,10.55
2018-09-30T08:47:15.606Z,10.83
2018-09-30T08:50:19.206Z,10.72
2018-09-30T08:53:23.303Z,10.75
2018-09-30T08:56:26.869Z,10.77
2018-09-30T08:59:30.402Z,10.79
2018-09-30T09:02:34.031Z,10.85
2018-09-30T09:05:38.525Z,10.87
2018-09-30T09:08:42.131Z,10.99
2018-09-30T09:11:45.768Z,11.02
2018-09-30T09:14:49.377Z,11.00
2018-09-30T09:17:53.009Z,11.00
2018-09-30T09:20:56.650Z,11.20
2018-09-30T09:24:00.326Z,11.19
2018-09-30T09:27:04.140Z,11.39
2018-09-30T09:30:08.059Z,11.34
2018-09-30T09:33:11.658Z,11.38
2018-09-30T09:36:15.233Z,11.41
2018-09-30T09:39:19.013Z,11.48
2018-09-30T09:42:22.605Z,11.53
2018-09-30T09:45:26.215Z,11.57
2018-09-30T09:48:29.852Z,11.67
2018-09-30T09:51:33.555Z,11.69
2018-09-30T09:54:37.137Z,11.76
2018-09-30T09:57:40.889Z,11.91
2018-09-30T10:00:45.793Z,11.85
2018-09-30T10:03:49.506Z,11.94
2018-09-30T10:06:53.150Z,11.97
2018-09-30T10:09:56.910Z,12.05
2018-09-30T10:13:00.918Z,12.13
2018-09-30T10:16:04.860Z,12.22
2018-09-30T10:19:08.741Z,12.21
2018-09-30T10:22:12.445Z,12.29
2018-09-30T10:25:16.159Z,12.23
2018-09-30T10:28:19.941Z,12.29
2018-09-30T10:31:23.613Z,12.27
2018-09-30T10:34:27.317Z,12.36
2018-09-30T10:37:30.966Z,12.40
2018-09-30T10:40:34.687Z,12.56
2018-09-30T10:43:38.453Z,12.53
2018-09-30T10:46:42.092Z,12.53
2018-09-30T10:49:46.229Z,12.61
2018-09-30T10:52:49.969Z,12.73
2018-09-30T10:55:53.753Z,12.55
2018-09-30T10:58:57.522Z,12.67
2018-09-30T11:02:01.235Z,12.71
2018-09-30T11:05:04.899Z,12.77
2018-09-30T11:08:08.575Z,13.14
2018-09-30T11:11:12.159Z,13.01
2018-09-30T11:14:15.851Z,13.25
2018-09-30T11:17:19.584Z,13.29
2018-09-30T11:20:23.341Z,13.25
2018-09-30T11:23:26.998Z,13.36
2018-09-30T11:26:30.636Z,13.35
2018-09-30T11:29:34.315Z,13.65
2018-09-30T11:32:38.129Z,13.63
2018-09-30T11:35:41.720Z,13.79
2018-09-30T11:38:45.430Z,13.65
2018-09-30T11:41:49.105Z,13.67
2018-09-30T11:44:52.807Z,13.80
2018-09-30T11:47:56.740Z,13.76
2018-09-30T11:51:00.420Z,13.75
2018-09-30T11:54:04.855Z,13.88
2018-09-30T11:57:08.651Z,14.00
2018-09-30T12:00:12.464Z,14.01
2018-09-30T12:03:16.137Z,14.11
2018-09-30T12:06:20.106Z,14.38
2018-09-30T12:09:23.707Z,14.67
2018-09-30T12:12:27.354Z,14.47
2018-09-30T12:15:31.037Z,14.29
2018-09-30T12:18:34.623Z,14.67
2018-09-30T12:21:38.372Z,14.63
2018-09-30T12:24:41.910Z,14.72
2018-09-30T12:27:45.454Z,14.70
2018-09-30T12:30:49.067Z,15.01
2018-09-30T12:33:52.780Z,15.22
2018-09-30T12:36:56.392Z,15.09
2018-09-30T12:40:00.019Z,15.19
2018-09-30T12:43:10.125Z,15.44
2018-09-30T12:46:14.145Z,15.83
2018-09-30T12:49:17.790Z,16.03
2018-09-30T12:52:21.398Z,16.01
2018-09-30T12:55:25.132Z,16.31
2018-09-30T12:58:28.690Z,16.61
2018-09-30T13:01:32.286Z,16.77
2018-09-30T13:04:35.779Z,16.95
2018-09-30T13:07:39.453Z,17.08
2018-09-30T13:10:42.936Z,17.28
2018-09-30T13:13:46.529Z,17.21
2018-09-30T13:16:50.175Z,17.21
2018-09-30T13:19:53.726Z,17.37
2018-09-30T13:22:57.281Z,17.48
2018-09-30T13:26:00.786Z,17.72
2018-09-30T13:29:04.436Z,17.78
2018-09-30T13:32:07.987Z,17.69
2018-09-30T13:35:11.558Z,17.52
2018-09-30T13:38:15.079Z,17.30
2018-09-30T13:41:18.807Z,17.46
2018-09-30T13:44:22.481Z,17.20
2018-09-30T13:47:26.121Z,17.29
2018-09-30T13:50:29.589Z,17.18
2018-09-30T13:53:33.176Z,17.28
2018-09-30T13:56:36.722Z,17.16
2018-09-30T13:59:40.307Z,17.30
2018-09-30T14:02:43.838Z,17.19
2018-09-30T14:05:47.563Z,17.23
2018-09-30T14:08:51.152Z,17.14
2018-09-30T14:11:54.622Z,17.18
2018-09-30T14:14:58.849Z,17.04
2018-09-30T14:18:02.313Z,16.96
2018-09-30T14:21:05.940Z,16.69
2018-09-30T14:24:09.693Z,16.39
2018-09-30T14:27:13.532Z,16.29
2018-09-30T14:30:17.064Z,16.02
2018-09-30T14:33:20.675Z,15.69
2018-09-30T14:36:25.167Z,15.41
2018-09-30T14:39:28.737Z,15.41
2018-09-30T14:42:32.328Z,15.24
2018-09-30T14:45:35.807Z,15.24
2018-09-30T14:48:39.461Z,15.67
2018-09-30T14:51:43.060Z,15.70
2018-09-30T14:54:46.579Z,15.77
2018-09-30T14:57:50.176Z,15.95
2018-09-30T15:00:53.684Z,15.99
2018-09-30T15:03:57.253Z,16.07
2018-09-30T15:07:00.850Z,15.95
2018-09-30T15:10:04.581Z,16.13
2018-09-30T15:13:08.212Z,16.00
2018-09-30T15:16:12.026Z,15.74
2018-09-30T15:19:15.542Z,15.49
2018-09-30T15:22:19.046Z,15.49
2018-09-30T15:25:22.644Z,15.21
2018-09-30T15:28:26.146Z,14.93
2018-09-30T15:31:29.689Z,14.98
2018-09-30T15:34:33.373Z,15.03
2018-09-30T15:37:37.032Z,14.97
2018-09-30T15:40:40.622Z,15.07
2018-09-30T15:43:47.149Z,14.75
2018-09-30T15:46:50.700Z,14.78
2018-09-30T15:49:54.306Z,14.78
2018-09-30T15:52:57.890Z,14.70
2018-09-30T15:56:01.573Z,14.59
2018-09-30T15:59:05.123Z,14.37
2018-09-30T16:02:08.840Z,14.22
2018-09-30T16:05:12.455Z,14.01
2018-09-30T16:08:15.943Z,13.91
2018-09-30T16:11:19.600Z,13.88
2018-09-30T16:14:23.170Z,13.78
2018-09-30T16:17:26.758Z,13.63
2018-09-30T16:20:30.329Z,13.55
2018-09-30T16:23:34.236Z,13.41
2018-09-30T16:26:37.863Z,13.27
2018-09-30T16:29:41.506Z,13.22
2018-09-30T16:32:45.020Z,12.99
2018-09-30T16:35:48.568Z,12.87
2018-09-30T16:38:52.167Z,12.72
2018-09-30T16:41:55.736Z,12.57
2018-09-30T16:44:59.367Z,12.42
2018-09-30T16:48:03.072Z,12.56
2018-09-30T16:51:07.092Z,12.43
2018-09-30T16:54:10.815Z,12.40
2018-09-30T16:57:14.408Z,12.23
2018-09-30T17:00:18.112Z,12.12
2018-09-30T17:03:21.885Z,11.91
2018-09-30T17:06:25.467Z,11.79
2018-09-30T17:09:29.104Z,11.69
2018-09-30T17:12:32.744Z,11.60
2018-09-30T17:15:36.443Z,11.54
2018-09-30T17:18:40.020Z,11.38
2018-09-30T17:21:43.735Z,11.32
2018-09-30T17:24:50.229Z,11.32
2018-09-30T17:27:53.904Z,11.38
2018-09-30T17:30:57.496Z,11.37
2018-09-30T17:34:01.077Z,11.40
2018-09-30T17:37:04.803Z,11.24
2018-09-30T17:40:08.587Z,11.11
2018-09-30T17:43:12.172Z,11.18
2018-09-30T17:46:15.873Z,11.33
2018-09-30T17:49:19.465Z,11.23
2018-09-30T17:52:23.291Z,11.08
2018-09-30T17:55:26.974Z,10.87
2018-09-30T17:58:30.718Z,10.82
2018-09-30T18:01:34.442Z,10.80
2018-09-30T18:04:38.030Z,10.73
2018-09-30T18:07:41.657Z,10.93
2018-09-30T18:10:45.249Z,10.77
2018-09-30T18:13:48.814Z,10.66
2018-09-30T18:16:52.605Z,10.66
2018-09-30T18:19:56.316Z,10.67
2018-09-30T18:22:59.958Z,10.68
2018-09-30T18:26:03.556Z,10.78
2018-09-30T18:29:07.530Z,10.63
2018-09-30T18:32:11.232Z,10.62
2018-09-30T18:35:15.177Z,10.68
2018-09-30T18:38:19.140Z,10.66
2018-09-30T18:41:23.121Z,10.68
2018-09-30T18:44:27.089Z,10.99
2018-09-30T18:47:30.936Z,10.96
2018-09-30T18:50:35.185Z,10.83
2018-09-30T18:53:39.223Z,11.22
2018-09-30T18:56:44.323Z,10.87
2018-09-30T18:59:48.205Z,10.78
2018-09-30T19:02:52.360Z,10.65
2018-09-30T19:05:56.280Z,10.57
2018-09-30T19:09:00.356Z,10.52
2018-09-30T19:12:04.623Z,10.50
2018-09-30T19:15:08.668Z,10.41
2018-09-30T19:18:12.641Z,10.49
2018-09-30T19:21:16.606Z,10.37
2018-09-30T19:24:20.370Z,10.42
2018-09-30T19:27:24.083Z,10.28
2018-09-30T19:30:27.786Z,10.48
2018-09-30T19:33:31.506Z,10.26
2018-09-30T19:36:35.217Z,10.40
2018-09-30T19:39:38.857Z,10.21
2018-09-30T19:42:42.597Z,10.12
2018-09-30T19:45:46.199Z,10.08
2018-09-30T19:48:50.136Z,10.16
2018-09-30T19:51:53.707Z,10.04
2018-09-30T19:54:57.355Z,10.09
2018-09-30T19:58:00.968Z,10.16
2018-09-30T20:01:04.802Z,10.09
2018-09-30T20:04:08.474Z,10.09
2018-09-30T20:07:12.185Z,10.12
2018-09-30T20:10:15.800Z,10.14
2018-09-30T20:13:19.511Z,10.39
2018-09-30T20:16:23.236Z,10.74
2018-09-30T20:19:26.863Z,10.60
2018-09-30T20:22:30.484Z,10.60
2018-09-30T20:25:40.389Z,10.66
2018-09-30T20:28:44.033Z,10.86
2018-09-30T20:31:47.655Z,10.99
2018-09-30T20:34:51.299Z,11.07
2018-09-30T20:37:54.923Z,11.19
2018-09-30T20:40:58.618Z,11.14
2018-09-30T20:44:02.254Z,10.97
2018-09-30T20:47:05.989Z,11.18
2018-09-30T20:50:09.626Z,10.96
2018-09-30T20:53:13.291Z,11.10
2018-09-30T20:56:17.063Z,10.94
2018-09-30T20:59:20.626Z,10.93
2018-09-30T21:02:24.297Z,10.80
2018-09-30T21:05:39.215Z,10.74
2018-09-30T21:08:43.237Z,10.59
2018-09-30T21:11:47.006Z,10.63
2018-09-30T21:14:50.552Z,10.54
2018-09-30T21:17:54.136Z,10.42
2018-09-30T21:20:57.736Z,10.39
2018-09-30T21:24:01.271Z,10.34
2018-09-30T21:27:04.950Z,10.29
2018-09-30T21:30:08.587Z,10.30
2018-09-30T21:33:12.225Z,10.23
2018-09-30T21:36:15.780Z,10.12
2018-09-30T21:39:19.355Z,10.07
2018-09-30T21:42:22.838Z,10.09
2018-09-30T21:45:26.388Z,10.10
2018-09-30T21:48:29.988Z,10.22
2018-09-30T21:51:33.798Z,10.21
2018-09-30T21:54:37.418Z,10.26
2018-09-30T21:57:40.991Z,10.23
2018-09-30T22:01:00.186Z,10.22
2018-09-30T22:04:03.836Z,10.19
2018-09-30T22:07:07.640Z,10.24
2018-09-30T22:10:11.252Z,10.29
2018-09-30T22:13:14.958Z,10.29
2018-09-30T22:16:18.567Z,10.50
2018-09-30T22:19:22.149Z,10.68
2018-09-30T22:22:25.725Z,10.94
2018-09-30T22:25:29.259Z,10.82
2018-09-30T22:28:32.873Z,10.60
2018-09-30T22:31:36.473Z,10.93
2018-09-30T22:34:39.984Z,11.25
2018-09-30T22:37:43.502Z,11.31
2018-09-30T22:40:47.033Z,11.44
2018-09-30T22:43:50.587Z,11.41
2018-09-30T22:46:54.091Z,11.33
2018-09-30T22:49:57.641Z,11.25
2018-09-30T22:53:01.176Z,11.31
2018-09-30T22:56:04.703Z,11.47
2018-09-30T22:59:08.218Z,11.45
2018-09-30T23:02:11.732Z,11.40
2018-09-30T23:05:15.346Z,11.36
2018-09-30T23:08:18.903Z,11.41
2018-09-30T23:11:22.472Z,11.38
2018-09-30T23:14:25.971Z,11.33
2018-09-30T23:17:29.503Z,11.37
2018-09-30T23:20:33.028Z,11.32
2018-09-30T23:23:36.607Z,11.29
2018-09-30T23:26:40.238Z,11.36
2018-09-30T23:29:43.739Z,11.37
2018-09-30T23:32:47.162Z,11.30
2018-09-30T23:35:50.664Z,11.30
2018-09-30T23:38:54.372Z,11.33
2018-09-30T23:41:57.954Z,11.22
2018-09-30T23:45:01.497Z,11.18
2018-09-30T23:48:05.047Z,11.13
2018-09-30T23:51:08.571Z,11.01
2018-09-30T23:54:12.293Z,11.08
2018-09-30T23:57:15.788Z,10.98
